sensor_id;sensor_type;location;lat;lon;timestamp;P1;durP1;ratioP1;P2;durP2;ratioP2
73333;SDS011;61561;43.538;-5.670;2022-08-21T01:01:52;11.88;;;6.00;;
73333;SDS011;61561;43.538;-5.670;2022-08-21T01:04:19;15.20;;;6.10;;
73333;SDS011;61561;43.538;-5.670;2022-08-21T01:06:45;14.98;;;6.88;;
73333;SDS011;61561;43.538;-5.670;2022-08-21T01:09:12;12.23;;;6.43;;
73333;SDS011;61561;43.538;-5.670;2022-08-21T01:11:52;14.57;;;8.00;;
73333;SDS011;61561;43.538;-5.670;2022-08-21T01:14:19;18.07;;;8.27;;
73333;SDS011;61561;43.538;-5.670;2022-08-21T01:16:46;19.75;;;8.40;;
73333;SDS011;61561;43.538;-5.670;2022-08-21T01:19:15;16.05;;;7.60;;
73333;SDS011;61561;43.538;-5.670;2022-08-21T01:21:42;17.83;;;8.20;;
73333;SDS011;61561;43.538;-5.670;2022-08-21T01:24:08;18.93;;;8.00;;
73333;SDS011;61561;43.538;-5.670;2022-08-21T01:26:35;15.97;;;8.07;;
73333;SDS011;61561;43.538;-5.670;2022-08-21T01:29:07;18.55;;;7.60;;
73333;SDS011;61561;43.538;-5.670;2022-08-21T01:31:41;14.05;;;7.15;;
73333;SDS011;61561;43.538;-5.670;2022-08-21T01:34:08;17.30;;;6.70;;
73333;SDS011;61561;43.538;-5.670;2022-08-21T01:36:41;19.73;;;8.20;;
73333;SDS011;61561;43.538;-5.670;2022-08-21T01:39:10;16.50;;;6.67;;
73333;SDS011;61561;43.538;-5.670;2022-08-21T01:41:38;19.05;;;7.28;;
73333;SDS011;61561;43.538;-5.670;2022-08-21T01:44:04;15.90;;;6.38;;
73333;SDS011;61561;43.538;-5.670;2022-08-21T01:46:31;13.60;;;7.28;;
73333;SDS011;61561;43.538;-5.670;2022-08-21T01:52:06;16.50;;;7.03;;
73333;SDS011;61561;43.538;-5.670;2022-08-21T01:54:32;16.38;;;7.50;;
73333;SDS011;61561;43.538;-5.670;2022-08-21T01:56:59;17.08;;;8.02;;
73333;SDS011;61561;43.538;-5.670;2022-08-21T01:59:26;16.60;;;8.60;;
73333;SDS011;61561;43.538;-5.670;2022-08-21T02:01:52;15.63;;;8.97;;
73333;SDS011;61561;43.538;-5.670;2022-08-21T02:04:19;16.13;;;9.77;;
73333;SDS011;61561;43.538;-5.670;2022-08-21T02:06:51;14.23;;;8.18;;
73333;SDS011;61561;43.538;-5.670;2022-08-21T02:09:17;16.73;;;9.00;;
73333;SDS011;61561;43.538;-5.670;2022-08-21T02:11:46;15.53;;;7.90;;
73333;SDS011;61561;43.538;-5.670;2022-08-21T02:14:13;16.90;;;8.75;;
73333;SDS011;61561;43.538;-5.670;2022-08-21T02:16:41;15.20;;;7.88;;
73333;SDS011;61561;43.538;-5.670;2022-08-21T02:19:11;13.80;;;7.80;;
73333;SDS011;61561;43.538;-5.670;2022-08-21T02:21:38;15.23;;;6.60;;
73333;SDS011;61561;43.538;-5.670;2022-08-21T02:24:05;13.10;;;6.85;;
73333;SDS011;61561;43.538;-5.670;2022-08-21T02:26:32;11.40;;;6.10;;
73333;SDS011;61561;43.538;-5.670;2022-08-21T02:28:59;9.85;;;5.40;;
73333;SDS011;61561;43.538;-5.670;2022-08-21T02:31:24;12.50;;;5.78;;
73333;SDS011;61561;43.538;-5.670;2022-08-21T02:33:51;10.67;;;5.13;;
73333;SDS011;61561;43.538;-5.670;2022-08-21T02:36:18;12.75;;;5.40;;
73333;SDS011;61561;43.538;-5.670;2022-08-21T02:38:45;13.25;;;5.60;;
73333;SDS011;61561;43.538;-5.670;2022-08-21T02:41:12;11.00;;;4.70;;
73333;SDS011;61561;43.538;-5.670;2022-08-21T02:43:40;9.88;;;5.00;;
73333;SDS011;61561;43.538;-5.670;2022-08-21T02:46:07;10.87;;;4.70;;
73333;SDS011;61561;43.538;-5.670;2022-08-21T02:51:56;10.77;;;4.57;;
73333;SDS011;61561;43.538;-5.670;2022-08-21T02:54:24;11.32;;;4.50;;
73333;SDS011;61561;43.538;-5.670;2022-08-21T02:56:50;9.32;;;4.10;;
73333;SDS011;61561;43.538;-5.670;2022-08-21T02:59:16;10.57;;;4.70;;
73333;SDS011;61561;43.538;-5.670;2022-08-21T12:30:18;5.13;;;1.50;;
73333;SDS011;61561;43.538;-5.670;2022-08-21T12:32:54;7.95;;;1.58;;
73333;SDS011;61561;43.538;-5.670;2022-08-21T12:35:27;9.52;;;2.08;;
73333;SDS011;61561;43.538;-5.670;2022-08-21T12:38:21;4.97;;;1.52;;
73333;SDS011;61561;43.538;-5.670;2022-08-21T12:40:54;6.43;;;1.52;;
73333;SDS011;61561;43.538;-5.670;2022-08-21T12:43:27;7.73;;;2.77;;
73333;SDS011;61561;43.538;-5.670;2022-08-21T12:45:56;7.20;;;1.58;;
73333;SDS011;61561;43.538;-5.670;2022-08-21T12:48:43;6.57;;;1.50;;
73333;SDS011;61561;43.538;-5.670;2022-08-21T12:51:25;5.90;;;1.50;;
73333;SDS011;61561;43.538;-5.670;2022-08-21T12:53:56;5.55;;;1.42;;
73333;SDS011;61561;43.538;-5.670;2022-08-21T12:56:26;4.40;;;1.20;;
73333;SDS011;61561;43.538;-5.670;2022-08-21T12:59:05;6.70;;;1.48;;
73333;SDS011;61561;43.538;-5.670;2022-08-21T13:01:34;5.30;;;1.50;;
73333;SDS011;61561;43.538;-5.670;2022-08-21T13:07:33;6.38;;;1.67;;
73333;SDS011;61561;43.538;-5.670;2022-08-21T13:10:06;5.73;;;1.70;;
73333;SDS011;61561;43.538;-5.670;2022-08-21T13:12:38;8.68;;;1.88;;
73333;SDS011;61561;43.538;-5.670;2022-08-21T13:21:51;7.78;;;1.60;;
73333;SDS011;61561;43.538;-5.670;2022-08-21T13:30:00;7.05;;;2.17;;
73333;SDS011;61561;43.538;-5.670;2022-08-21T13:38:22;5.65;;;1.73;;
73333;SDS011;61561;43.538;-5.670;2022-08-21T13:43:56;6.68;;;1.80;;
73333;SDS011;61561;43.538;-5.670;2022-08-21T13:46:31;4.63;;;1.53;;
73333;SDS011;61561;43.538;-5.670;2022-08-21T13:48:59;5.40;;;1.52;;
73333;SDS011;61561;43.538;-5.670;2022-08-21T13:51:29;7.55;;;2.13;;
73333;SDS011;61561;43.538;-5.670;2022-08-21T13:53:56;6.10;;;1.80;;
73333;SDS011;61561;43.538;-5.670;2022-08-21T13:56:28;6.10;;;1.70;;
73333;SDS011;61561;43.538;-5.670;2022-08-21T14:02:10;5.50;;;1.52;;
73333;SDS011;61561;43.538;-5.670;2022-08-21T14:04:51;6.22;;;1.90;;
73333;SDS011;61561;43.538;-5.670;2022-08-21T18:08:41;6.40;;;0.90;;
73333;SDS011;61561;43.538;-5.670;2022-08-21T18:11:11;4.55;;;1.27;;
73333;SDS011;61561;43.538;-5.670;2022-08-21T18:13:42;4.88;;;1.60;;
73333;SDS011;61561;43.538;-5.670;2022-08-21T18:16:08;4.88;;;1.15;;
73333;SDS011;61561;43.538;-5.670;2022-08-21T18:18:38;4.72;;;1.73;;
73333;SDS011;61561;43.538;-5.670;2022-08-21T18:21:07;6.30;;;1.37;;
73333;SDS011;61561;43.538;-5.670;2022-08-21T18:23:33;5.35;;;1.00;;
73333;SDS011;61561;43.538;-5.670;2022-08-21T18:26:00;5.50;;;0.90;;
73333;SDS011;61561;43.538;-5.670;2022-08-21T18:28:26;4.80;;;1.33;;
73333;SDS011;61561;43.538;-5.670;2022-08-21T18:30:52;4.20;;;1.20;;
73333;SDS011;61561;43.538;-5.670;2022-08-21T18:33:31;5.95;;;1.75;;
73333;SDS011;61561;43.538;-5.670;2022-08-21T18:35:56;5.07;;;1.35;;
73333;SDS011;61561;43.538;-5.670;2022-08-21T18:38:22;5.93;;;1.43;;
73333;SDS011;61561;43.538;-5.670;2022-08-21T18:40:50;6.47;;;1.83;;
73333;SDS011;61561;43.538;-5.670;2022-08-21T18:43:17;4.72;;;1.40;;
73333;SDS011;61561;43.538;-5.670;2022-08-21T18:45:45;5.07;;;1.52;;
73333;SDS011;61561;43.538;-5.670;2022-08-21T18:48:15;5.20;;;1.20;;
73333;SDS011;61561;43.538;-5.670;2022-08-21T18:50:45;3.58;;;0.85;;
73333;SDS011;61561;43.538;-5.670;2022-08-21T18:53:15;6.00;;;0.98;;
73333;SDS011;61561;43.538;-5.670;2022-08-21T18:55:44;4.20;;;0.98;;
73333;SDS011;61561;43.538;-5.670;2022-08-21T18:58:14;4.30;;;1.00;;
73333;SDS011;61561;43.538;-5.670;2022-08-21T19:00:42;5.20;;;0.93;;
73333;SDS011;61561;43.538;-5.670;2022-08-21T19:03:19;5.05;;;0.90;;
73333;SDS011;61561;43.538;-5.670;2022-08-21T19:05:50;5.28;;;1.17;;
73333;SDS011;61561;43.538;-5.670;2022-08-21T19:08:19;6.75;;;0.82;;
73333;SDS011;61561;43.538;-5.670;2022-08-21T19:10:47;5.05;;;1.15;;
73333;SDS011;61561;43.538;-5.670;2022-08-21T19:13:17;4.90;;;1.27;;
73333;SDS011;61561;43.538;-5.670;2022-08-21T19:15:45;4.60;;;1.17;;
73333;SDS011;61561;43.538;-5.670;2022-08-21T19:18:47;4.53;;;0.90;;
73333;SDS011;61561;43.538;-5.670;2022-08-21T19:21:13;5.38;;;1.10;;
73333;SDS011;61561;43.538;-5.670;2022-08-21T19:23:39;6.53;;;1.50;;
73333;SDS011;61561;43.538;-5.670;2022-08-21T19:26:05;4.88;;;0.90;;
73333;SDS011;61561;43.538;-5.670;2022-08-21T19:28:35;7.57;;;1.58;;
73333;SDS011;61561;43.538;-5.670;2022-08-21T19:33:42;7.88;;;1.92;;
73333;SDS011;61561;43.538;-5.670;2022-08-21T19:36:11;5.33;;;0.97;;
73333;SDS011;61561;43.538;-5.670;2022-08-21T19:38:38;5.22;;;1.00;;
73333;SDS011;61561;43.538;-5.670;2022-08-21T19:41:07;5.50;;;1.20;;
73333;SDS011;61561;43.538;-5.670;2022-08-21T19:43:43;5.95;;;1.05;;
73333;SDS011;61561;43.538;-5.670;2022-08-21T23:57:35;5.00;;;0.50;;
